Time;durP1;ratioP1;P1;durP2;ratioP2;P2;SDS_P1;SDS_P2;PMS_P1;PMS_P2;Temp;Humidity;BMP_temperature;BMP_pressure;BME280_temperature;BME280_humidity;BME280_pressure;Samples;Min_cycle;Max_cycle;Signal;HPM_P1;HPM_P2
2022/12/29 00:00:16;;;;;;;2.40;1.10;;;;;;;9.26;86.18;99604.73;105779;1291;58933;-75
2022/12/29 00:02:42;;;;;;;2.50;1.10;;;;;;;9.27;85.97;99606.12;105571;1292;59134;-76
2022/12/29 00:05:09;;;;;;;2.80;1.00;;;;;;;9.30;85.89;99599.23;105616;1289;74550;-76
2022/12/29 00:07:36;;;;;;;2.30;1.00;;;;;;;9.31;85.70;99602.32;105579;1292;70388;-76
2022/12/29 00:10:03;;;;;;;2.40;1.40;;;;;;;9.35;85.55;99605.58;105536;1288;58953;-76
2022/12/29 00:15:36;;;;;;;1.80;1.10;;;;;;;9.38;85.46;99603.26;105635;1298;60902;-78
2022/12/29 00:18:01;;;;;;;2.70;1.20;;;;;;;9.47;85.05;99603.19;105580;1294;73333;-76
2022/12/29 00:37:05;;;;;;;1.90;0.90;;;;;;;9.78;84.10;99595.91;105698;1281;70697;-76
2022/12/29 00:45:03;;;;;;;2.50;1.00;;;;;;;9.89;83.45;99589.95;105757;1292;73334;-76
2022/12/29 00:47:29;;;;;;;2.50;1.10;;;;;;;9.93;83.40;99586.19;105633;1285;71223;-76
2022/12/29 00:49:55;;;;;;;1.60;0.90;;;;;;;9.95;83.29;99587.82;105684;1284;60301;-77
2022/12/29 00:52:22;;;;;;;2.40;0.80;;;;;;;10.00;83.24;99586.05;105731;1291;58847;-76
2022/12/29 00:54:48;;;;;;;2.00;1.10;;;;;;;9.98;83.50;99588.00;105589;1291;59113;-76
2022/12/29 00:57:15;;;;;;;3.10;1.10;;;;;;;9.99;83.43;99582.54;105690;1291;58983;-76
2022/12/29 00:59:43;;;;;;;1.20;0.80;;;;;;;10.03;83.45;99584.11;105548;1294;70814;-77
2022/12/29 01:02:10;;;;;;;2.50;1.10;;;;;;;10.05;83.59;99582.20;105661;1295;71799;-76
2022/12/29 01:04:37;;;;;;;2.20;0.90;;;;;;;10.05;83.61;99580.80;105501;1287;60823;-77
2022/12/29 01:07:04;;;;;;;2.30;1.00;;;;;;;10.07;83.64;99582.77;105735;1291;60126;-76
2022/12/29 01:12:39;;;;;;;1.70;0.80;;;;;;;10.07;83.84;99575.31;105575;1292;71130;-76
2022/12/29 01:15:04;;;;;;;2.70;1.10;;;;;;;10.07;84.00;99577.14;105572;1291;70994;-76
2022/12/29 01:17:30;;;;;;;2.30;1.00;;;;;;;10.09;84.04;99565.58;105537;1292;60438;-76
2022/12/29 01:19:57;;;;;;;2.60;0.90;;;;;;;10.07;84.19;99558.55;105756;1291;59338;-77
2022/12/29 01:22:23;;;;;;;2.20;1.00;;;;;;;10.04;84.49;99548.58;105668;1292;59001;-77
2022/12/29 01:24:50;;;;;;;1.70;0.90;;;;;;;10.01;84.71;99541.55;105538;1294;59062;-77
2022/12/29 01:27:16;;;;;;;2.70;1.10;;;;;;;9.97;85.01;99536.72;105622;1284;59467;-76
2022/12/29 01:29:43;;;;;;;2.80;1.00;;;;;;;9.95;85.32;99531.01;105627;1292;61900;-76
2022/12/29 01:32:09;;;;;;;1.70;0.80;;;;;;;9.89;85.80;99537.88;105740;1284;59036;-76
2022/12/29 01:34:36;;;;;;;2.40;1.00;;;;;;;9.86;86.17;99525.68;105557;1291;59254;-76
2022/12/29 01:37:02;;;;;;;2.20;1.20;;;;;;;9.84;86.27;99512.89;105609;1294;59335;-76
2022/12/29 01:39:29;;;;;;;1.50;1.00;;;;;;;9.82;86.32;99507.41;105424;1293;58968;-77
2022/12/29 01:41:55;;;;;;;2.50;1.00;;;;;;;9.80;86.40;99500.81;105756;1292;58968;-76
2022/12/29 01:44:48;;;;;;;2.50;1.00;;;;;;;9.77;86.38;99504.98;105620;1284;58846;-76
2022/12/29 01:47:40;;;;;;;1.70;1.00;;;;;;;9.77;86.59;99495.87;105462;1291;73945;-76
2022/12/29 01:50:15;;;;;;;2.20;1.10;;;;;;;9.74;86.99;99502.22;105454;1288;70316;-76
2022/12/29 01:52:53;;;;;;;1.60;1.00;;;;;;;9.77;86.83;99497.26;105476;1288;72741;-76
2022/12/29 01:55:20;;;;;;;2.20;1.00;;;;;;;9.76;86.99;99498.48;105550;1298;60421;-76
2022/12/29 01:57:51;;;;;;;1.90;0.90;;;;;;;9.75;87.22;99505.73;105749;1292;59169;-76
2022/12/29 02:00:18;;;;;;;2.20;0.90;;;;;;;9.72;87.38;99500.73;105706;1287;73439;-76
2022/12/29 02:02:49;;;;;;;1.70;1.00;;;;;;;9.72;87.44;99499.33;105630;1287;71197;-76
2022/12/29 02:05:26;;;;;;;2.30;0.80;;;;;;;9.71;87.49;99496.71;105551;1290;73118;-76
2022/12/29 02:07:53;;;;;;;2.90;0.90;;;;;;;9.71;87.48;99494.88;105712;1292;60260;-76
2022/12/29 02:10:23;;;;;;;2.00;0.80;;;;;;;9.72;87.65;99491.58;105583;1291;59638;-76
2022/12/29 02:12:49;;;;;;;1.70;0.80;;;;;;;9.73;87.58;99488.85;105607;1292;73152;-76
2022/12/29 02:15:17;;;;;;;1.60;0.80;;;;;;;9.76;87.40;99479.09;105512;1295;70993;-76
2022/12/29 02:17:59;;;;;;;1.60;0.80;;;;;;;9.77;87.23;99479.21;105572;1295;71460;-76
2022/12/29 02:20:57;;;;;;;1.30;0.80;;;;;;;9.80;87.15;99475.54;105580;1292;60436;-76
2022/12/29 02:23:48;;;;;;;1.40;0.70;;;;;;;9.79;87.01;99477.82;105755;1291;59520;-76
2022/12/29 02:26:32;;;;;;;1.40;0.90;;;;;;;9.79;86.97;99475.10;105593;1287;77145;-76
2022/12/29 02:29:23;;;;;;;2.00;0.90;;;;;;;9.77;87.03;99468.48;105528;1294;69731;-76
2022/12/29 02:31:59;;;;;;;1.50;0.80;;;;;;;9.75;87.10;99462.05;105727;1284;73945;-76
2022/12/29 02:34:35;;;;;;;1.50;0.80;;;;;;;9.75;87.25;99453.81;105634;1290;61779;-76
2022/12/29 02:37:30;;;;;;;2.80;0.80;;;;;;;9.75;87.34;99460.34;105768;1282;59555;-76
2022/12/29 02:40:03;;;;;;;1.70;0.80;;;;;;;9.73;87.54;99466.52;105657;1287;74298;-76
2022/12/29 02:42:40;;;;;;;1.80;1.00;;;;;;;9.80;87.33;99464.63;105658;1290;69569;-76
2022/12/29 02:45:20;;;;;;;1.50;0.70;;;;;;;9.87;87.14;99455.27;105795;1290;71388;-76
2022/12/29 02:47:58;;;;;;;1.80;0.60;;;;;;;9.94;86.78;99445.63;105628;1294;60727;-76
2022/12/29 02:50:37;;;;;;;1.90;0.80;;;;;;;10.02;86.63;99445.48;105571;1287;59090;-76
2022/12/29 02:53:10;;;;;;;1.30;0.70;;;;;;;10.08;86.44;99444.66;105574;1287;73407;-76
2022/12/29 02:55:37;;;;;;;2.30;0.60;;;;;;;10.15;86.31;99445.93;105728;1292;69594;-76
2022/12/29 02:58:16;;;;;;;1.50;0.70;;;;;;;10.22;86.11;99440.39;105638;1293;59353;-76
2022/12/29 03:01:09;;;;;;;1.10;0.60;;;;;;;10.27;85.88;99434.04;105634;1291;61154;-76
2022/12/29 03:03:55;;;;;;;1.20;0.70;;;;;;;10.32;85.71;99440.59;105697;1292;60163;-76
2022/12/29 03:06:32;;;;;;;1.80;0.90;;;;;;;10.36;85.52;99447.96;105549;1294;74022;-76
2022/12/29 03:09:05;;;;;;;1.80;0.80;;;;;;;10.41;85.43;99444.83;105570;1293;69921;-77
2022/12/29 03:12:16;;;;;;;1.20;0.70;;;;;;;10.46;85.07;99439.33;105731;1288;73248;-76
2022/12/29 03:18:06;;;;;;;1.60;0.60;;;;;;;10.51;85.09;99447.80;105629;1291;59224;-76
2022/12/29 03:20:42;;;;;;;2.60;0.70;;;;;;;10.54;84.96;99442.25;105751;1291;72687;-76
2022/12/29 03:23:10;;;;;;;1.70;0.80;;;;;;;10.55;84.83;99441.36;105642;1287;73007;-76
2022/12/29 03:25:43;;;;;;;1.80;0.60;;;;;;;10.58;84.68;99434.95;105739;1284;71184;-76
2022/12/29 03:28:14;;;;;;;1.40;0.70;;;;;;;10.59;84.65;99433.52;105635;1287;62074;-77
2022/12/29 03:30:41;;;;;;;1.90;0.80;;;;;;;10.64;84.55;99423.39;105615;1284;59811;-76
2022/12/29 03:33:12;;;;;;;1.50;0.70;;;;;;;10.65;84.49;99422.70;105758;1288;75516;-76
2022/12/29 03:35:42;;;;;;;2.00;0.80;;;;;;;10.67;84.28;99409.89;105573;1293;69573;-76
2022/12/29 03:38:27;;;;;;;1.20;0.60;;;;;;;10.67;84.42;99395.52;105574;1293;73163;-76
2022/12/29 03:40:58;;;;;;;1.90;0.60;;;;;;;10.68;84.21;99393.47;105536;1286;61974;-77
2022/12/29 03:43:26;;;;;;;1.30;0.70;;;;;;;10.66;84.18;99396.88;105529;1293;60129;-76
2022/12/29 03:45:52;;;;;;;1.80;0.80;;;;;;;10.63;84.06;99394.89;105557;1291;73998;-76
2022/12/29 03:48:19;;;;;;;1.40;0.80;;;;;;;10.56;84.24;99394.89;105446;1289;69090;-77
2022/12/29 03:50:45;;;;;;;1.60;0.70;;;;;;;10.49;84.52;99396.70;105742;1291;59293;-77
2022/12/29 03:53:12;;;;;;;1.80;0.80;;;;;;;10.46;84.75;99388.96;105514;1297;59342;-76
2022/12/29 03:55:38;;;;;;;2.10;0.80;;;;;;;10.43;84.94;99382.15;105619;1294;59169;-76
2022/12/29 03:58:05;;;;;;;1.70;0.80;;;;;;;10.42;85.04;99381.41;105603;1291;60523;-76
2022/12/29 04:00:32;;;;;;;2.70;0.80;;;;;;;10.39;85.32;99372.20;105528;1294;69063;-76
2022/12/29 04:02:58;;;;;;;1.40;0.70;;;;;;;10.36;85.56;99368.20;105592;1290;59052;-76
2022/12/29 04:05:25;;;;;;;2.60;0.70;;;;;;;10.34;85.89;99357.16;105792;1284;60588;-76
2022/12/29 04:07:51;;;;;;;2.10;0.80;;;;;;;10.37;85.90;99359.52;105737;1291;59003;-77
2022/12/29 04:10:18;;;;;;;2.10;0.60;;;;;;;10.35;86.08;99368.17;105771;1292;73117;-77
2022/12/29 04:12:46;;;;;;;1.90;0.70;;;;;;;10.38;86.17;99374.16;105579;1286;58443;-77
2022/12/29 04:15:13;;;;;;;2.50;0.80;;;;;;;10.40;86.11;99378.20;105642;1284;71933;-76
2022/12/29 04:17:39;;;;;;;1.50;0.60;;;;;;;10.42;86.11;99378.71;105744;1284;61079;-76
2022/12/29 04:23:05;;;;;;;2.10;0.80;;;;;;;10.54;85.80;99379.64;105772;1291;75825;-76
2022/12/29 04:25:32;;;;;;;1.70;0.60;;;;;;;10.60;85.66;99373.35;105567;1294;72200;-76
2022/12/29 04:27:59;;;;;;;1.60;0.50;;;;;;;10.66;85.01;99379.77;105629;1287;71886;-76
2022/12/29 04:30:26;;;;;;;1.30;0.60;;;;;;;10.72;84.67;99385.71;105466;1285;60755;-76
2022/12/29 04:32:53;;;;;;;1.10;0.60;;;;;;;10.78;84.35;99379.70;105615;1290;61526;-76
2022/12/29 04:35:19;;;;;;;1.50;0.60;;;;;;;10.84;84.16;99380.39;105550;1291;59066;-77
2022/12/29 04:37:45;;;;;;;0.80;0.50;;;;;;;10.87;83.93;99384.24;105779;1284;59190;-76
2022/12/29 04:40:12;;;;;;;1.50;0.50;;;;;;;10.89;83.57;99383.34;105526;1289;58891;-77
2022/12/29 04:42:38;;;;;;;1.00;0.40;;;;;;;10.92;83.11;99374.77;105755;1284;59289;-77
2022/12/29 04:45:06;;;;;;;1.10;0.40;;;;;;;10.95;82.85;99375.64;105595;1292;58967;-76
2022/12/29 04:47:32;;;;;;;1.30;0.70;;;;;;;10.98;82.61;99380.48;105451;1297;72742;-77
2022/12/29 04:50:00;;;;;;;1.30;0.50;;;;;;;10.99;82.25;99387.23;105751;1291;71081;-75
2022/12/29 04:52:26;;;;;;;0.90;0.40;;;;;;;11.01;81.87;99388.89;105607;1293;73737;-77
2022/12/29 04:54:53;;;;;;;1.40;0.50;;;;;;;11.05;81.61;99379.25;105731;1291;61750;-77
2022/12/29 04:57:19;;;;;;;1.20;0.50;;;;;;;11.09;81.32;99380.62;105786;1291;58785;-77
2022/12/29 04:59:46;;;;;;;0.90;0.50;;;;;;;11.10;80.94;99374.98;105625;1292;59646;-77
2022/12/29 05:02:12;;;;;;;1.70;0.70;;;;;;;11.14;80.78;99377.34;105682;1292;58912;-77
2022/12/29 05:04:39;;;;;;;1.20;0.40;;;;;;;11.16;80.39;99377.52;105624;1285;71730;-77
2022/12/29 05:07:06;;;;;;;1.00;0.50;;;;;;;11.20;80.01;99370.98;105730;1284;58933;-77
2022/12/29 05:09:32;;;;;;;0.80;0.50;;;;;;;11.22;79.69;99370.48;105542;1291;59600;-76
2022/12/29 05:11:59;;;;;;;1.00;0.50;;;;;;;11.26;79.54;99365.02;105662;1284;60236;-77
2022/12/29 05:14:26;;;;;;;0.60;0.30;;;;;;;11.29;79.25;99363.78;105620;1294;71370;-77
2022/12/29 05:16:52;;;;;;;1.70;0.40;;;;;;;11.31;79.14;99370.84;105769;1290;70434;-77
2022/12/29 05:19:19;;;;;;;1.20;0.50;;;;;;;11.33;78.62;99366.58;105643;1294;59830;-76
2022/12/29 05:21:45;;;;;;;1.30;0.50;;;;;;;11.34;78.68;99372.17;105780;1291;59490;-77
2022/12/29 05:24:12;;;;;;;1.10;0.50;;;;;;;11.37;78.32;99364.23;105643;1291;58854;-77
2022/12/29 05:26:38;;;;;;;0.70;0.40;;;;;;;11.39;78.21;99368.98;105676;1290;59485;-76
2022/12/29 05:29:05;;;;;;;1.30;0.30;;;;;;;11.41;78.09;99374.17;105607;1293;58354;-76
2022/12/29 05:31:31;;;;;;;1.10;0.40;;;;;;;11.43;77.82;99364.98;105498;1295;59205;-76
2022/12/29 05:33:58;;;;;;;0.90;0.40;;;;;;;11.46;77.78;99367.01;105608;1290;58932;-75
2022/12/29 05:36:24;;;;;;;1.50;0.50;;;;;;;11.47;77.24;99363.88;105637;1295;59009;-77
2022/12/29 05:38:51;;;;;;;1.90;0.50;;;;;;;11.49;77.21;99369.44;105455;1295;59468;-77
2022/12/29 05:41:17;;;;;;;1.00;0.50;;;;;;;11.52;76.91;99363.45;105521;1294;58379;-76
2022/12/29 05:43:43;;;;;;;0.70;0.20;;;;;;;11.52;76.72;99371.86;105421;1281;59077;-76
2022/12/29 05:46:10;;;;;;;0.70;0.30;;;;;;;11.54;76.87;99369.36;105476;1292;58922;-76
2022/12/29 05:48:37;;;;;;;0.50;0.30;;;;;;;11.54;77.00;99377.86;105691;1287;58949;-77
2022/12/29 05:51:04;;;;;;;2.40;0.70;;;;;;;11.56;77.42;99374.86;105510;1294;71217;-77
2022/12/29 05:53:30;;;;;;;0.70;0.40;;;;;;;11.52;78.39;99378.45;105676;1284;72389;-77
2022/12/29 05:55:57;;;;;;;1.50;0.40;;;;;;;11.49;79.17;99379.73;105423;1289;62403;-77
2022/12/29 05:58:23;;;;;;;1.40;0.50;;;;;;;11.39;79.78;99381.38;105644;1287;58584;-77
2022/12/29 06:00:50;;;;;;;1.00;0.40;;;;;;;11.31;80.60;99376.67;105673;1285;60045;-76
2022/12/29 06:03:17;;;;;;;0.70;0.30;;;;;;;11.24;81.06;99371.16;105650;1292;70418;-76
2022/12/29 06:05:46;;;;;;;1.20;0.40;;;;;;;11.16;81.80;99388.71;105462;1292;71540;-76
2022/12/29 06:08:13;;;;;;;0.90;0.30;;;;;;;11.09;82.49;99373.80;105709;1287;61929;-76
2022/12/29 06:10:39;;;;;;;0.70;0.50;;;;;;;11.04;83.30;99369.49;105502;1288;59248;-77
2022/12/29 06:13:06;;;;;;;1.50;0.40;;;;;;;10.96;83.85;99370.82;105429;1293;58874;-77
2022/12/29 06:15:33;;;;;;;1.20;0.40;;;;;;;10.94;84.28;99371.48;105702;1293;59269;-76
2022/12/29 06:18:00;;;;;;;1.30;0.40;;;;;;;10.90;85.02;99371.59;105391;1297;72751;-76
2022/12/29 06:20:27;;;;;;;0.90;0.40;;;;;;;10.87;85.38;99367.35;105390;1297;61793;-77
2022/12/29 06:22:54;;;;;;;1.10;0.50;;;;;;;10.84;85.74;99359.33;105409;1297;59135;-76
2022/12/29 06:25:20;;;;;;;1.10;0.40;;;;;;;10.76;86.63;99346.57;105564;1292;59395;-76
2022/12/29 06:27:47;;;;;;;1.20;0.30;;;;;;;10.70;86.95;99341.89;105549;1287;59212;-76
2022/12/29 06:30:14;;;;;;;0.60;0.30;;;;;;;10.66;87.45;99341.51;105720;1294;58958;-77
2022/12/29 06:32:41;;;;;;;1.50;0.50;;;;;;;10.66;87.52;99338.27;105714;1287;60052;-76
2022/12/29 06:35:07;;;;;;;1.30;0.40;;;;;;;10.66;87.84;99335.41;105555;1294;58989;-76
2022/12/29 06:37:34;;;;;;;1.60;0.40;;;;;;;10.64;89.06;99336.00;105359;1295;287576;-75
2022/12/29 06:40:01;;;;;;;1.40;0.40;;;;;;;10.59;89.28;99331.16;105490;1288;58981;-76
2022/12/29 06:42:28;;;;;;;1.30;0.50;;;;;;;10.57;89.53;99332.46;105423;1290;72921;-75
2022/12/29 06:44:58;;;;;;;1.40;0.50;;;;;;;10.56;89.38;99329.49;105731;1287;58996;-76
2022/12/29 06:47:24;;;;;;;0.70;0.30;;;;;;;10.53;89.46;99324.69;105522;1294;59346;-76
2022/12/29 06:49:51;;;;;;;1.50;0.50;;;;;;;10.51;89.51;99325.02;105543;1294;74127;-76
2022/12/29 06:52:17;;;;;;;0.80;0.40;;;;;;;10.49;89.53;99327.76;105710;1295;59156;-76
2022/12/29 06:54:44;;;;;;;1.20;0.40;;;;;;;10.51;89.22;99329.55;105502;1293;59400;-77
2022/12/29 06:57:10;;;;;;;1.70;0.50;;;;;;;10.55;88.88;99326.96;105675;1292;58990;-76
2022/12/29 06:59:37;;;;;;;0.80;0.60;;;;;;;10.57;88.56;99323.01;105528;1289;59340;-76
2022/12/29 07:02:03;;;;;;;0.60;0.40;;;;;;;10.62;88.09;99320.05;105509;1294;59055;-76
2022/12/29 07:04:30;;;;;;;1.10;0.50;;;;;;;10.66;87.64;99330.12;105347;1290;59299;-76
2022/12/29 07:06:56;;;;;;;1.20;0.50;;;;;;;10.70;87.96;99335.36;105695;1285;59252;-76
2022/12/29 07:09:23;;;;;;;0.90;0.40;;;;;;;10.72;88.39;99333.19;105697;1285;59016;-76
2022/12/29 07:11:50;;;;;;;1.00;0.40;;;;;;;10.71;88.15;99326.35;105480;1295;59025;-76
2022/12/29 07:14:16;;;;;;;0.50;0.20;;;;;;;10.72;87.62;99327.65;105451;1285;75007;-76
2022/12/29 07:16:43;;;;;;;0.90;0.30;;;;;;;10.75;87.27;99329.02;105626;1294;70198;-76
2022/12/29 07:19:10;;;;;;;1.10;0.30;;;;;;;10.77;86.55;99325.96;105435;1293;73014;-77
2022/12/29 07:21:36;;;;;;;0.80;0.40;;;;;;;10.82;86.07;99318.72;105708;1292;58856;-76
2022/12/29 07:24:03;;;;;;;0.70;0.30;;;;;;;10.86;84.90;99318.54;105715;1290;58975;-77
2022/12/29 07:26:29;;;;;;;1.00;0.40;;;;;;;10.95;83.93;99319.52;105467;1296;73473;-78
2022/12/29 07:29:03;;;;;;;0.80;0.30;;;;;;;11.04;82.72;99322.26;105492;1288;70117;-76
2022/12/29 07:31:30;;;;;;;1.00;0.40;;;;;;;11.14;82.32;99347.45;105453;1296;71442;-75
2022/12/29 07:33:56;;;;;;;0.90;0.30;;;;;;;11.20;82.24;99371.63;105526;1295;63007;-75
2022/12/29 07:36:22;;;;;;;1.00;0.30;;;;;;;11.23;82.24;99389.50;105478;1285;59104;-75
2022/12/29 07:38:54;;;;;;;1.40;0.40;;;;;;;11.21;82.77;99397.28;105703;1292;73400;-75
2022/12/29 07:41:21;;;;;;;1.40;0.30;;;;;;;11.13;84.19;99413.06;105720;1284;70469;-78
2022/12/29 07:43:48;;;;;;;1.10;0.30;;;;;;;10.95;85.92;99431.77;105483;1294;59081;-77
2022/12/29 07:46:15;;;;;;;1.20;0.50;;;;;;;10.48;88.46;99449.86;105504;1295;62043;-77
2022/12/29 07:49:02;;;;;;;0.60;0.30;;;;;;;9.95;92.49;99450.35;105701;1292;59289;-78
2022/12/29 07:51:28;;;;;;;1.40;0.50;;;;;;;9.74;94.58;99431.01;105481;1292;74910;-78
2022/12/29 07:53:55;;;;;;;0.80;0.40;;;;;;;9.63;96.54;99435.08;105467;1290;59276;-77
2022/12/29 07:56:21;;;;;;;0.80;0.30;;;;;;;9.59;97.35;99445.66;105719;1293;59377;-78
2022/12/29 07:58:49;;;;;;;1.10;0.50;;;;;;;9.56;97.57;99441.79;105537;1294;62465;-77
2022/12/29 08:01:15;;;;;;;1.60;0.50;;;;;;;9.51;98.25;99439.90;105604;1294;58967;-78
2022/12/29 08:03:41;;;;;;;0.80;0.40;;;;;;;9.48;98.29;99429.90;105545;1295;59298;-78
2022/12/29 08:06:11;;;;;;;1.50;0.50;;;;;;;9.48;98.10;99431.58;105591;1294;59224;-78
2022/12/29 08:08:38;;;;;;;2.20;0.60;;;;;;;9.46;98.15;99432.77;105581;1294;72321;-78
2022/12/29 08:11:05;;;;;;;2.20;0.60;;;;;;;9.44;98.12;99436.83;105722;1291;58331;-78
2022/12/29 08:13:31;;;;;;;1.10;0.60;;;;;;;9.42;98.05;99434.34;105542;1292;58957;-78
2022/12/29 08:15:58;;;;;;;1.70;0.60;;;;;;;9.39;98.33;99435.99;105530;1294;59130;-77
2022/12/29 08:18:25;;;;;;;1.70;0.70;;;;;;;9.37;98.67;99448.07;105697;1290;69638;-77
2022/12/29 08:20:51;;;;;;;1.50;0.70;;;;;;;9.36;98.58;99446.48;105672;1292;72150;-78
2022/12/29 08:23:21;;;;;;;2.20;0.60;;;;;;;9.36;98.44;99447.98;105601;1294;59574;-78
2022/12/29 08:25:57;;;;;;;2.30;0.50;;;;;;;9.36;98.26;99453.52;105379;1295;59575;-78
2022/12/29 08:28:23;;;;;;;2.40;0.60;;;;;;;9.37;98.22;99465.18;105668;1295;73125;-78
2022/12/29 08:30:50;;;;;;;2.90;0.70;;;;;;;9.37;98.13;99470.15;105575;1287;59255;-78
2022/12/29 08:33:16;;;;;;;3.10;0.90;;;;;;;9.38;98.12;99472.50;105522;1287;58995;-78
2022/12/29 08:35:43;;;;;;;2.80;0.80;;;;;;;9.38;98.22;99470.47;105727;1292;59614;-78
2022/12/29 08:38:11;;;;;;;2.80;0.80;;;;;;;9.41;98.11;99469.17;105587;1288;59290;-78
2022/12/29 08:40:37;;;;;;;4.00;1.00;;;;;;;9.43;98.17;99470.91;105535;1294;73127;-77
2022/12/29 08:43:05;;;;;;;3.10;0.80;;;;;;;9.45;98.20;99469.56;105603;1288;71369;-78
2022/12/29 08:45:32;;;;;;;1.30;0.60;;;;;;;9.47;98.13;99478.13;105596;1287;72528;-77
2022/12/29 08:47:58;;;;;;;3.00;0.70;;;;;;;9.48;98.14;99484.98;105381;1295;60228;-77
2022/12/29 08:50:25;;;;;;;2.70;0.80;;;;;;;9.50;98.16;99483.80;105580;1297;59083;-77
2022/12/29 08:52:51;;;;;;;2.60;0.80;;;;;;;9.54;97.89;99482.63;105569;1291;73967;-76
2022/12/29 08:55:18;;;;;;;4.00;1.00;;;;;;;9.56;97.71;99482.14;105610;1287;70673;-76
2022/12/29 08:57:45;;;;;;;2.60;0.90;;;;;;;9.59;97.55;99482.41;105487;1294;71631;-77
2022/12/29 09:00:12;;;;;;;2.70;1.00;;;;;;;9.58;97.56;99487.73;105622;1287;60951;-77
2022/12/29 09:02:38;;;;;;;1.90;0.80;;;;;;;9.59;97.34;99503.88;105627;1290;59679;-77
2022/12/29 09:05:05;;;;;;;3.50;0.80;;;;;;;9.60;97.05;99506.81;105753;1294;73826;-77
2022/12/29 09:07:32;;;;;;;2.70;1.00;;;;;;;9.61;96.88;99513.17;105604;1287;70312;-76
2022/12/29 09:09:58;;;;;;;3.20;1.00;;;;;;;9.64;96.52;99511.05;105520;1297;71246;-73
2022/12/29 09:12:25;;;;;;;2.70;0.90;;;;;;;9.67;96.23;99508.30;105566;1295;59101;-73
2022/12/29 09:14:56;;;;;;;2.60;0.90;;;;;;;9.72;95.46;99506.48;105595;1292;60634;-74
2022/12/29 09:20:08;;;;;;;2.80;1.10;;;;;;;9.86;94.18;99490.06;105696;1290;69561;-73
2022/12/29 09:22:36;;;;;;;2.70;0.80;;;;;;;9.89;93.42;99488.33;105531;1290;72504;-73
2022/12/29 09:25:03;;;;;;;2.20;0.80;;;;;;;9.93;92.63;99489.87;105449;1288;60913;-73
2022/12/29 09:27:30;;;;;;;3.60;0.90;;;;;;;9.97;92.17;99496.26;105591;1293;60199;-73
2022/12/29 09:29:56;;;;;;;2.20;0.90;;;;;;;10.00;91.42;99499.77;105557;1295;72970;-73
2022/12/29 09:32:22;;;;;;;2.60;1.00;;;;;;;10.04;90.86;99506.51;105627;1293;58969;-73
2022/12/29 09:34:51;;;;;;;2.40;0.90;;;;;;;10.07;90.44;99511.64;105507;1287;73114;-73
2022/12/29 09:37:18;;;;;;;2.90;1.10;;;;;;;10.09;89.70;99516.04;105550;1279;58991;-73
2022/12/29 09:39:44;;;;;;;3.80;1.50;;;;;;;10.12;89.53;99517.14;105605;1287;58998;-73
2022/12/29 09:42:27;;;;;;;2.90;0.90;;;;;;;10.14;89.57;99516.42;105620;1294;73177;-73
2022/12/29 09:44:56;;;;;;;2.00;0.90;;;;;;;10.18;89.62;99511.25;105436;1290;70596;-73
2022/12/29 09:47:25;;;;;;;3.40;1.30;;;;;;;10.20;89.57;99506.69;105675;1286;71534;-73
2022/12/29 09:49:57;;;;;;;3.00;1.00;;;;;;;10.21;89.49;99505.42;105654;1295;61054;-73
2022/12/29 09:52:29;;;;;;;2.90;1.20;;;;;;;10.18;89.27;99501.84;105675;1293;58980;-73
2022/12/29 09:55:13;;;;;;;28.70;5.50;;;;;;;10.19;89.37;99503.67;105584;1294;74925;-73
2022/12/29 09:57:49;;;;;;;6.70;1.50;;;;;;;10.18;89.17;99502.70;105598;1287;70875;-73
2022/12/29 10:00:22;;;;;;;2.50;0.90;;;;;;;10.18;89.64;99512.03;105663;1293;72164;-73
2022/12/29 10:03:02;;;;;;;4.00;1.00;;;;;;;10.14;89.92;99516.67;105522;1293;63263;-73
2022/12/29 10:05:40;;;;;;;4.70;1.20;;;;;;;10.14;90.37;99526.08;105580;1288;58991;-73
2022/12/29 10:08:26;;;;;;;3.00;0.80;;;;;;;10.11;90.92;99527.64;105661;1285;74182;-73
2022/12/29 10:11:04;;;;;;;2.70;0.70;;;;;;;10.07;91.52;99513.42;105655;1293;70355;-73
2022/12/29 10:13:43;;;;;;;1.80;0.80;;;;;;;9.95;92.15;99504.68;105587;1294;72753;-73
2022/12/29 10:16:37;;;;;;;3.70;0.80;;;;;;;9.90;92.53;99509.52;105611;1294;62043;-73
2022/12/29 10:19:26;;;;;;;3.20;1.00;;;;;;;9.83;92.12;99516.73;105557;1295;59642;-73
2022/12/29 10:22:04;;;;;;;1.90;0.90;;;;;;;9.80;92.40;99516.21;105599;1287;74707;-73
2022/12/29 10:24:34;;;;;;;1.50;0.70;;;;;;;9.73;92.00;99506.34;105607;1293;70848;-73
2022/12/29 10:27:01;;;;;;;3.00;1.10;;;;;;;9.65;91.89;99523.38;105514;1294;72742;-73
2022/12/29 10:29:33;;;;;;;2.20;1.00;;;;;;;9.60;91.93;99514.06;105545;1297;59213;-73
2022/12/29 10:32:05;;;;;;;4.60;0.70;;;;;;;9.57;91.92;99504.61;105404;1297;59439;-72
2022/12/29 10:34:45;;;;;;;3.10;0.90;;;;;;;9.57;91.64;99501.01;105480;1287;73121;-73
2022/12/29 10:37:18;;;;;;;3.40;0.80;;;;;;;9.55;91.64;99487.64;105487;1297;70870;-73
2022/12/29 10:39:55;;;;;;;3.20;0.70;;;;;;;9.56;91.62;99486.92;105409;1297;71407;-73
2022/12/29 10:42:44;;;;;;;2.60;0.90;;;;;;;9.63;91.19;99487.80;105369;1295;62049;-73
2022/12/29 10:45:18;;;;;;;4.10;1.50;;;;;;;9.75;91.02;99478.17;105543;1278;59047;-73
2022/12/29 10:47:53;;;;;;;2.20;0.90;;;;;;;9.85;89.95;99483.01;105431;1293;75749;-73
2022/12/29 10:50:20;;;;;;;2.90;0.90;;;;;;;9.96;89.93;99476.81;105474;1298;71307;-73
2022/12/29 10:52:47;;;;;;;2.30;0.90;;;;;;;10.07;88.64;99475.52;105550;1295;72544;-73
2022/12/29 10:55:47;;;;;;;4.20;1.00;;;;;;;10.20;87.76;99475.62;105408;1297;59685;-73
2022/12/29 10:58:14;;;;;;;3.90;1.10;;;;;;;10.34;86.49;99483.16;105431;1294;60411;-72
2022/12/29 11:00:48;;;;;;;2.50;0.90;;;;;;;10.41;85.27;99486.18;105443;1297;73086;-72
2022/12/29 11:03:21;;;;;;;3.70;0.70;;;;;;;10.45;83.35;99491.70;105579;1290;70055;-72
2022/12/29 11:05:56;;;;;;;4.00;1.00;;;;;;;10.48;82.31;99490.52;105514;1293;73342;-72
2022/12/29 11:08:32;;;;;;;2.70;0.90;;;;;;;10.52;80.52;99498.67;105617;1293;61779;-72
2022/12/29 11:11:08;;;;;;;2.60;0.90;;;;;;;10.57;78.69;99503.29;105543;1287;60235;-72
2022/12/29 11:13:48;;;;;;;2.80;0.80;;;;;;;10.65;77.34;99497.48;105631;1295;73963;-72
2022/12/29 11:16:26;;;;;;;2.30;0.90;;;;;;;10.69;77.16;99506.62;105537;1289;69632;-72
2022/12/29 11:18:53;;;;;;;3.40;0.80;;;;;;;10.68;76.48;99529.10;105404;1301;70735;-72
2022/12/29 11:21:31;;;;;;;2.10;0.80;;;;;;;10.72;77.09;99506.05;105540;1293;59797;-73
2022/12/29 11:24:04;;;;;;;3.50;0.90;;;;;;;10.76;77.13;99513.11;105515;1294;61415;-73
2022/12/29 11:26:32;;;;;;;3.50;1.00;;;;;;;10.84;76.91;99523.10;105481;1296;73825;-72
2022/12/29 11:29:19;;;;;;;4.40;1.00;;;;;;;10.93;76.89;99511.18;105537;1293;71181;-72
2022/12/29 11:31:49;;;;;;;3.50;1.00;;;;;;;11.03;77.17;99509.11;105491;1294;70728;-72
2022/12/29 11:34:24;;;;;;;3.20;0.90;;;;;;;11.22;76.52;99508.95;105438;1291;62128;-73
2022/12/29 11:36:58;;;;;;;3.60;0.90;;;;;;;11.59;75.33;99507.27;105506;1294;60865;-73
2022/12/29 11:39:54;;;;;;;3.10;1.00;;;;;;;11.78;74.44;99493.35;105484;1286;74870;-72
2022/12/29 11:42:31;;;;;;;3.70;1.10;;;;;;;11.77;72.31;99500.09;105571;1294;71354;-73
2022/12/29 11:45:13;;;;;;;3.40;0.90;;;;;;;12.02;70.54;99506.54;105459;1295;71981;-73
2022/12/29 11:47:45;;;;;;;3.90;1.00;;;;;;;12.08;68.64;99515.98;105489;1294;61378;-72
2022/12/29 11:50:18;;;;;;;4.10;0.70;;;;;;;12.02;68.89;99507.56;105534;1287;59099;-73
2022/12/29 11:52:47;;;;;;;4.20;0.90;;;;;;;11.95;69.35;99504.61;105570;1295;75148;-73
2022/12/29 11:55:26;;;;;;;3.80;0.80;;;;;;;12.02;69.05;99508.82;105562;1293;70169;-73
2022/12/29 11:57:57;;;;;;;4.30;0.90;;;;;;;12.05;68.58;99514.73;105461;1297;71759;-73
2022/12/29 12:00:25;;;;;;;4.40;0.80;;;;;;;12.15;68.44;99521.55;105546;1295;62167;-73
2022/12/29 12:03:16;;;;;;;4.30;0.80;;;;;;;12.51;67.53;99529.27;105519;1295;61707;-73
2022/12/29 12:05:54;;;;;;;3.90;0.90;;;;;;;12.65;65.83;99520.95;105567;1293;75674;-72
2022/12/29 12:08:45;;;;;;;2.40;0.70;;;;;;;12.50;66.16;99520.64;105503;1293;71697;-72
2022/12/29 12:11:18;;;;;;;4.10;1.00;;;;;;;12.40;66.21;99520.20;105506;1293;72947;-72
2022/12/29 12:13:58;;;;;;;4.20;0.80;;;;;;;12.28;65.42;99520.86;105458;1295;60401;-72
2022/12/29 12:16:34;;;;;;;2.80;0.80;;;;;;;12.25;65.62;99524.27;105654;1289;58958;-73
2022/12/29 12:19:53;;;;;;;5.70;0.90;;;;;;;12.20;65.00;99528.76;105636;1287;73849;-73
2022/12/29 12:22:33;;;;;;;4.70;1.10;;;;;;;12.06;64.72;99529.83;104971;1306;70703;-72